Time;durP1;ratioP1;P1;durP2;ratioP2;P2;SDS_P1;SDS_P2;PMS_P1;PMS_P2;Temp;Humidity;BMP_temperature;BMP_pressure;BME280_temperature;BME280_humidity;BME280_pressure;Samples;Min_cycle;Max_cycle;Signal;HPM_P1;HPM_P2
2021/03/01 00:01:04;;;;;;;11.17;7.50;;;;;;;3.70;66.26;98123.06;5084517;28;20514;-68
2021/03/01 00:03:30;;;;;;;10.10;6.73;;;;;;;3.62;66.32;98128.19;5081284;28;20200;-67
2021/03/01 00:05:56;;;;;;;11.30;7.67;;;;;;;3.63;66.38;98122.03;5079123;28;20189;-67
2021/03/01 00:08:22;;;;;;;9.87;7.50;;;;;;;3.47;66.75;98121.91;5079549;28;20216;-68
2021/03/01 00:10:47;;;;;;;11.00;7.83;;;;;;;3.36;66.67;98128.13;5090062;28;20666;-68
2021/03/01 00:13:13;;;;;;;9.43;7.20;;;;;;;3.51;66.59;98126.63;5074751;28;20200;-67
2021/03/01 00:15:39;;;;;;;10.67;7.33;;;;;;;3.51;67.05;98124.03;5082340;28;20541;-68
2021/03/01 00:18:04;;;;;;;10.57;7.73;;;;;;;3.58;65.67;98126.84;5084286;28;20213;-68
2021/03/01 00:20:31;;;;;;;9.53;7.30;;;;;;;3.64;66.29;98121.88;5081849;28;20227;-68
2021/03/01 00:22:56;;;;;;;9.07;6.77;;;;;;;3.65;65.93;98128.72;5080311;28;20204;-68
2021/03/01 00:25:22;;;;;;;10.00;7.23;;;;;;;3.47;66.99;98122.72;5086436;28;20184;-68
2021/03/01 00:27:47;;;;;;;11.77;7.07;;;;;;;3.50;65.88;98135.38;5075625;28;20188;-68
2021/03/01 00:30:13;;;;;;;10.00;7.27;;;;;;;3.49;66.31;98128.56;5082803;28;20212;-68
2021/03/01 00:32:38;;;;;;;9.40;6.80;;;;;;;3.46;66.91;98138.41;5082757;28;20269;-68
2021/03/01 00:35:05;;;;;;;8.20;6.73;;;;;;;3.43;67.23;98128.34;5082945;28;20184;-68
2021/03/01 00:37:31;;;;;;;10.20;7.07;;;;;;;3.36;67.48;98130.72;5080760;28;20181;-68
2021/03/01 00:39:56;;;;;;;11.00;6.87;;;;;;;3.35;67.41;98129.91;5078590;28;20219;-68
2021/03/01 00:42:22;;;;;;;9.20;6.83;;;;;;;3.25;67.80;98130.94;5082982;28;20192;-68
2021/03/01 00:44:47;;;;;;;11.77;7.77;;;;;;;3.09;68.64;98138.53;5093575;28;20183;-68
2021/03/01 00:47:12;;;;;;;10.33;7.47;;;;;;;3.00;68.97;98132.47;5086054;28;20335;-68
2021/03/01 00:49:38;;;;;;;12.17;7.97;;;;;;;3.16;68.29;98142.19;5086973;28;20200;-69
2021/03/01 00:52:03;;;;;;;10.23;7.10;;;;;;;3.05;68.94;98138.03;5085305;28;20181;-67
2021/03/01 00:54:29;;;;;;;10.27;7.07;;;;;;;2.98;69.21;98142.16;5093990;28;20187;-67
2021/03/01 00:56:54;;;;;;;9.00;7.27;;;;;;;2.94;69.32;98135.63;5091443;28;20283;-67
2021/03/01 00:59:19;;;;;;;9.27;6.87;;;;;;;2.86;70.00;98130.34;5079410;28;20204;-67
2021/03/01 01:01:45;;;;;;;9.33;7.23;;;;;;;2.79;70.26;98135.28;5086690;28;20178;-69
2021/03/01 01:04:10;;;;;;;10.53;7.47;;;;;;;2.77;71.06;98132.06;5085904;28;20184;-68
2021/03/01 01:06:35;;;;;;;9.87;7.60;;;;;;;2.76;70.26;98130.41;5079297;28;20191;-68
2021/03/01 01:09:01;;;;;;;9.87;7.23;;;;;;;2.66;70.77;98128.84;5090528;28;20197;-67
2021/03/01 01:11:26;;;;;;;10.60;7.73;;;;;;;2.62;70.46;98133.47;5083466;28;20239;-67
2021/03/01 01:13:52;;;;;;;11.07;8.10;;;;;;;2.60;71.07;98121.66;5083171;28;20188;-67
2021/03/01 01:16:17;;;;;;;11.00;7.77;;;;;;;2.62;71.28;98125.69;5087370;28;20193;-68
2021/03/01 01:18:43;;;;;;;10.43;7.63;;;;;;;2.72;70.92;98128.28;5077063;28;20612;-68
2021/03/01 01:21:08;;;;;;;10.33;7.87;;;;;;;2.72;70.68;98128.28;5083821;28;20668;-68
2021/03/01 01:23:34;;;;;;;11.80;7.40;;;;;;;2.66;71.51;98123.66;5093924;28;20219;-68
2021/03/01 01:25:59;;;;;;;10.80;7.37;;;;;;;2.84;70.34;98125.31;5085524;28;20272;-68
2021/03/01 01:28:25;;;;;;;9.83;7.23;;;;;;;2.84;70.04;98122.72;5089415;28;20669;-68
2021/03/01 01:30:50;;;;;;;12.00;7.53;;;;;;;2.80;70.46;98120.59;5082220;28;20232;-67
2021/03/01 01:33:15;;;;;;;11.80;7.80;;;;;;;2.79;70.17;98122.34;5077209;28;20238;-68
2021/03/01 01:35:41;;;;;;;10.07;7.70;;;;;;;2.56;71.36;98113.38;5087411;28;20203;-68
2021/03/01 01:38:07;;;;;;;11.67;7.77;;;;;;;2.52;72.29;98122.34;5079784;28;20196;-67
2021/03/01 01:40:32;;;;;;;11.63;7.90;;;;;;;2.54;72.37;98120.44;5081528;28;20191;-68
2021/03/01 01:42:58;;;;;;;9.07;7.77;;;;;;;2.57;72.38;98120.16;5077567;28;20178;-67
2021/03/01 01:45:25;;;;;;;9.20;7.43;;;;;;;2.48;72.63;98113.25;5066505;28;20200;-69
2021/03/01 01:47:51;;;;;;;12.33;8.00;;;;;;;2.48;73.17;98114.06;5080848;28;20659;-68
2021/03/01 01:50:23;;;;;;;12.07;7.83;;;;;;;2.42;72.92;98113.81;5085470;28;20259;-68
2021/03/01 01:52:50;;;;;;;9.83;7.63;;;;;;;2.33;74.13;98115.50;5081915;28;20661;-68
2021/03/01 01:55:17;;;;;;;11.73;8.63;;;;;;;2.41;74.03;98113.00;5089911;28;20218;-68
2021/03/01 01:57:43;;;;;;;13.53;8.53;;;;;;;2.33;74.02;98109.50;5081915;28;20193;-69
2021/03/01 02:00:59;;;;;;;10.63;7.33;;;;;;;2.27;73.32;98110.91;5073963;28;20197;-68
2021/03/01 02:03:24;;;;;;;12.27;7.93;;;;;;;2.23;73.38;98104.34;5077526;28;20192;-68
2021/03/01 02:05:51;;;;;;;12.07;8.33;;;;;;;2.21;73.57;98108.06;5080584;28;20189;-68
2021/03/01 02:08:26;;;;;;;12.30;8.33;;;;;;;2.22;73.60;98113.09;5088376;28;20370;-69
2021/03/01 02:10:57;;;;;;;10.83;8.27;;;;;;;2.42;73.28;98108.66;5074986;28;20226;-67
2021/03/01 02:13:40;;;;;;;10.73;8.00;;;;;;;2.39;73.71;98108.94;5082322;28;20200;-68
2021/03/01 02:16:14;;;;;;;13.43;9.07;;;;;;;2.29;73.54;98100.38;5078446;28;20284;-68
2021/03/01 02:18:39;;;;;;;14.57;8.93;;;;;;;2.32;73.24;98103.53;5093253;28;20222;-68
2021/03/01 02:21:10;;;;;;;11.70;8.53;;;;;;;2.28;73.60;98097.00;5085876;28;20213;-68
2021/03/01 02:23:35;;;;;;;10.83;7.80;;;;;;;2.43;73.30;98098.16;5080849;28;20184;-68
2021/03/01 02:26:04;;;;;;;12.67;7.97;;;;;;;2.37;73.35;98095.31;5092644;28;20230;-68
2021/03/01 02:28:33;;;;;;;10.17;7.90;;;;;;;2.33;73.59;98096.59;5091901;28;20584;-68
2021/03/01 02:31:01;;;;;;;9.67;7.50;;;;;;;2.31;73.58;98090.72;5086863;28;20229;-67
2021/03/01 02:33:34;;;;;;;12.30;7.80;;;;;;;2.27;73.43;98095.38;5073280;28;20634;-69
2021/03/01 02:36:07;;;;;;;12.60;8.07;;;;;;;2.26;73.46;98096.31;5082482;28;20180;-68
2021/03/01 02:38:37;;;;;;;11.20;7.93;;;;;;;2.16;74.17;98092.16;5088499;28;20698;-69
2021/03/01 02:41:04;;;;;;;13.83;8.83;;;;;;;2.14;74.02;98081.94;5078291;28;20224;-68
2021/03/01 02:43:31;;;;;;;10.70;8.40;;;;;;;2.06;74.75;98082.63;5084188;28;20185;-69
2021/03/01 02:45:58;;;;;;;12.83;8.40;;;;;;;2.01;74.39;98086.59;5084601;28;20184;-67
2021/03/01 02:48:25;;;;;;;12.00;8.47;;;;;;;2.11;74.16;98089.19;5089614;28;20177;-68
2021/03/01 02:50:52;;;;;;;11.67;8.50;;;;;;;2.15;73.61;98080.97;5073521;28;20201;-69
2021/03/01 02:53:19;;;;;;;13.57;8.50;;;;;;;2.20;74.23;98086.53;5079462;28;20200;-68
2021/03/01 02:55:47;;;;;;;13.27;8.73;;;;;;;2.15;73.74;98080.16;5081962;28;20189;-69
2021/03/01 02:58:15;;;;;;;12.83;8.80;;;;;;;2.02;75.08;98075.31;5076092;28;20185;-68
2021/03/01 03:00:42;;;;;;;11.60;8.90;;;;;;;2.14;73.74;98076.75;5086489;28;20250;-68
2021/03/01 03:03:09;;;;;;;10.87;7.90;;;;;;;2.27;71.78;98077.28;5074773;28;20224;-68
2021/03/01 03:05:36;;;;;;;10.10;7.73;;;;;;;2.29;71.58;98075.34;5074660;28;20552;-68
2021/03/01 03:08:02;;;;;;;10.17;7.73;;;;;;;2.33;71.69;98081.06;5083804;28;20189;-67
2021/03/01 03:10:29;;;;;;;10.83;7.93;;;;;;;2.39;71.32;98077.91;5083471;28;20200;-68
2021/03/01 03:12:55;;;;;;;9.83;7.77;;;;;;;2.25;72.07;98075.78;5079471;28;20246;-68
2021/03/01 03:15:22;;;;;;;10.57;7.63;;;;;;;2.17;71.95;98070.50;5081142;28;20703;-68
2021/03/01 03:17:50;;;;;;;11.63;8.00;;;;;;;2.13;72.89;98074.31;5087260;28;20283;-67
2021/03/01 03:20:15;;;;;;;10.63;7.63;;;;;;;2.10;72.02;98072.84;5074922;28;20185;-68
2021/03/01 03:22:41;;;;;;;11.53;8.23;;;;;;;2.11;72.66;98071.88;5087452;28;20208;-68
2021/03/01 03:25:09;;;;;;;10.10;7.50;;;;;;;2.14;72.24;98076.75;5073506;28;20215;-68
2021/03/01 03:27:34;;;;;;;10.97;8.27;;;;;;;2.00;73.02;98074.66;5084786;28;20188;-68
2021/03/01 03:29:59;;;;;;;10.73;7.37;;;;;;;2.10;72.60;98075.44;5076357;28;20193;-67
2021/03/01 03:32:26;;;;;;;10.50;8.03;;;;;;;1.98;73.07;98072.19;5088190;28;20224;-68
2021/03/01 03:34:52;;;;;;;11.57;7.97;;;;;;;1.94;73.24;98067.47;5073434;28;20597;-68
2021/03/01 03:37:31;;;;;;;10.10;7.50;;;;;;;1.90;73.52;98071.25;5081003;28;20267;-68
2021/03/01 03:39:58;;;;;;;11.03;7.50;;;;;;;1.85;73.56;98070.88;5078015;28;20285;-68
2021/03/01 03:42:27;;;;;;;10.57;8.03;;;;;;;1.78;73.89;98072.41;5089043;28;20644;-67
2021/03/01 03:44:53;;;;;;;10.73;7.67;;;;;;;1.77;73.66;98081.09;5088535;28;20197;-67
2021/03/01 03:47:20;;;;;;;12.30;8.23;;;;;;;1.79;73.74;98074.81;5090863;28;20176;-68
2021/03/01 03:49:47;;;;;;;9.60;7.53;;;;;;;1.72;73.36;98078.13;5079173;28;20291;-68
2021/03/01 03:52:15;;;;;;;10.40;7.97;;;;;;;1.67;73.79;98068.22;5086890;28;20180;-68
2021/03/01 03:54:43;;;;;;;10.40;7.70;;;;;;;1.71;73.65;98072.13;5088528;28;20188;-68
2021/03/01 03:57:14;;;;;;;13.70;7.87;;;;;;;1.76;73.78;98075.13;5084210;28;20211;-68
2021/03/01 03:59:42;;;;;;;9.13;7.30;;;;;;;1.67;74.10;98075.97;5072441;28;20170;-69
2021/03/01 04:02:10;;;;;;;12.70;8.07;;;;;;;1.68;74.33;98068.03;5084759;28;20180;-68
2021/03/01 04:04:37;;;;;;;11.67;7.97;;;;;;;1.68;74.40;98065.47;5081864;28;20194;-68
2021/03/01 04:07:05;;;;;;;11.23;8.33;;;;;;;1.75;74.17;98076.06;5084469;28;20198;-68
2021/03/01 04:09:32;;;;;;;10.50;7.33;;;;;;;1.76;74.93;98069.94;5089655;28;20254;-68
2021/03/01 04:11:59;;;;;;;10.00;7.63;;;;;;;1.59;75.53;98068.88;5075920;28;20263;-67
2021/03/01 04:14:25;;;;;;;12.77;8.13;;;;;;;1.54;75.10;98065.91;5083265;28;20184;-68
2021/03/01 04:16:54;;;;;;;11.00;8.40;;;;;;;1.54;75.06;98065.09;5079008;28;20204;-68
2021/03/01 04:19:23;;;;;;;10.20;8.33;;;;;;;1.51;75.18;98067.94;5085166;28;20180;-69
2021/03/01 04:21:54;;;;;;;11.50;8.83;;;;;;;1.52;75.47;98062.63;5074512;28;20189;-69
2021/03/01 04:24:22;;;;;;;12.97;9.17;;;;;;;1.53;75.35;98069.44;5077656;28;20217;-68
2021/03/01 04:26:49;;;;;;;13.93;9.00;;;;;;;1.49;75.64;98059.53;5082324;28;20183;-69
2021/03/01 04:29:15;;;;;;;12.40;8.40;;;;;;;1.48;75.63;98063.06;5076123;28;20614;-68
2021/03/01 04:31:43;;;;;;;14.63;8.60;;;;;;;1.38;75.79;98062.25;5082014;28;20300;-68
2021/03/01 04:34:09;;;;;;;12.10;8.80;;;;;;;1.37;76.01;98068.38;5075647;28;20181;-68
2021/03/01 04:36:36;;;;;;;10.83;8.90;;;;;;;1.41;75.25;98067.13;5081218;28;20184;-68
2021/03/01 04:39:01;;;;;;;12.43;9.30;;;;;;;1.33;76.12;98057.50;5079315;28;20185;-67
2021/03/01 04:41:27;;;;;;;11.80;8.60;;;;;;;1.32;76.60;98068.78;5084620;28;20188;-68
2021/03/01 04:43:54;;;;;;;10.87;8.97;;;;;;;1.37;76.56;98065.78;5086312;28;20192;-68
2021/03/01 04:46:20;;;;;;;11.67;8.13;;;;;;;1.29;76.81;98074.22;5076338;28;20313;-68
2021/03/01 04:48:47;;;;;;;10.10;8.30;;;;;;;1.32;77.48;98075.72;5079757;28;20267;-68
2021/03/01 04:51:13;;;;;;;10.43;8.37;;;;;;;1.34;76.68;98079.78;5084696;28;20180;-68
2021/03/01 04:53:39;;;;;;;12.87;8.87;;;;;;;1.37;76.82;98074.34;5074663;28;20271;-68
2021/03/01 04:56:06;;;;;;;11.77;9.07;;;;;;;1.36;76.58;98074.47;5074758;28;20629;-67
2021/03/01 04:58:33;;;;;;;11.87;8.73;;;;;;;1.45;76.27;98073.69;5081635;28;20197;-68
2021/03/01 05:01:03;;;;;;;12.17;8.80;;;;;;;1.58;75.89;98075.00;5081723;28;20219;-67
2021/03/01 05:03:29;;;;;;;11.90;8.57;;;;;;;1.60;75.40;98073.09;5087621;28;20193;-68
2021/03/01 05:05:58;;;;;;;12.40;8.40;;;;;;;1.71;74.60;98077.31;5074987;28;20181;-68
2021/03/01 05:08:25;;;;;;;13.23;9.20;;;;;;;1.77;74.09;98081.09;5089232;28;20246;-68
2021/03/01 05:10:51;;;;;;;12.90;9.13;;;;;;;1.67;74.81;98078.53;5080016;28;20209;-68
2021/03/01 05:13:16;;;;;;;11.30;9.23;;;;;;;1.67;74.96;98075.97;5075610;28;20174;-69
2021/03/01 05:15:41;;;;;;;12.63;9.20;;;;;;;1.73;74.19;98084.94;5087622;28;20192;-69
2021/03/01 05:18:07;;;;;;;14.50;9.87;;;;;;;1.74;74.75;98081.34;5073659;28;20234;-68
2021/03/01 05:20:33;;;;;;;14.83;9.40;;;;;;;1.52;75.95;98078.13;5082720;28;20209;-68
2021/03/01 05:22:58;;;;;;;10.70;8.80;;;;;;;1.43;76.14;98078.16;5076545;28;20181;-68
2021/03/01 05:25:24;;;;;;;11.70;8.90;;;;;;;1.42;77.10;98079.91;5073458;28;20192;-68
2021/03/01 05:27:49;;;;;;;14.70;9.87;;;;;;;1.71;76.62;98079.06;5087965;28;20207;-68
2021/03/01 05:30:15;;;;;;;14.70;9.77;;;;;;;1.76;75.75;98085.44;5087605;28;20204;-69
2021/03/01 05:32:40;;;;;;;12.93;9.67;;;;;;;1.64;76.26;98083.97;5083635;28;20220;-69
2021/03/01 05:35:07;;;;;;;13.20;9.53;;;;;;;1.53;77.22;98084.13;5077646;28;20181;-67
2021/03/01 05:37:33;;;;;;;17.00;10.03;;;;;;;1.40;77.43;98081.81;5072694;28;20857;-69
2021/03/01 05:39:58;;;;;;;12.80;9.53;;;;;;;1.34;77.36;98079.00;5082799;28;20188;-68
2021/03/01 05:42:26;;;;;;;12.50;8.83;;;;;;;1.27;77.46;98072.72;5084096;28;20232;-68
2021/03/01 05:44:53;;;;;;;13.90;8.77;;;;;;;1.32;77.35;98079.13;5075170;28;20187;-69
2021/03/01 05:47:21;;;;;;;14.07;8.97;;;;;;;1.34;77.36;98086.72;5089723;28;20188;-71
2021/03/01 05:49:47;;;;;;;14.20;9.77;;;;;;;1.45;77.01;98084.00;5088282;28;20205;-68
2021/03/01 05:52:17;;;;;;;12.90;9.23;;;;;;;1.40;77.48;98083.56;5081072;28;20552;-68
2021/03/01 05:54:44;;;;;;;14.00;9.67;;;;;;;1.38;77.86;98073.41;5092794;28;20189;-68
2021/03/01 05:57:10;;;;;;;12.57;9.17;;;;;;;1.38;77.67;98072.59;5077830;28;20224;-68
2021/03/01 05:59:36;;;;;;;13.67;9.30;;;;;;;1.34;77.70;98073.81;5090501;28;20180;-68
2021/03/01 06:02:03;;;;;;;14.53;9.63;;;;;;;1.31;77.71;98074.06;5079406;28;20235;-66
2021/03/01 06:04:28;;;;;;;14.57;9.17;;;;;;;1.32;77.88;98086.03;5084346;28;20181;-67
2021/03/01 06:06:54;;;;;;;13.93;9.20;;;;;;;1.25;78.08;98089.16;5081089;28;20242;-66
2021/03/01 06:09:20;;;;;;;15.10;9.57;;;;;;;1.33;78.08;98091.09;5089744;28;20219;-67
2021/03/01 06:11:49;;;;;;;12.70;9.07;;;;;;;1.48;77.38;98092.28;5093226;28;20207;-67
2021/03/01 06:14:15;;;;;;;11.00;8.93;;;;;;;1.41;77.54;98095.53;5091034;28;20540;-67
2021/03/01 06:17:15;;;;;;;13.17;9.33;;;;;;;1.46;78.07;98099.34;5090219;28;20191;-68
2021/03/01 06:19:50;;;;;;;12.40;8.77;;;;;;;1.53;77.61;98105.59;5089430;28;20629;-68
2021/03/01 06:22:18;;;;;;;12.30;9.20;;;;;;;1.23;78.16;98103.16;5090895;28;20176;-63
2021/03/01 06:25:01;;;;;;;18.90;9.63;;;;;;;1.54;78.75;98102.06;5089399;28;20200;-64
2021/03/01 06:27:26;;;;;;;13.63;9.00;;;;;;;1.66;77.40;98105.34;5086454;28;20169;-69
2021/03/01 06:30:10;;;;;;;13.47;9.50;;;;;;;1.71;76.84;98107.50;5086723;28;20235;-68
2021/03/01 06:32:36;;;;;;;12.13;9.17;;;;;;;1.66;77.21;98103.56;5085260;28;20301;-68
2021/03/01 06:35:04;;;;;;;11.10;8.53;;;;;;;1.75;76.11;98106.25;5075883;28;20178;-68
2021/03/01 06:37:29;;;;;;;11.70;8.73;;;;;;;1.85;75.73;98101.88;5067723;28;20182;-69
2021/03/01 06:39:55;;;;;;;10.97;8.33;;;;;;;1.83;75.62;98108.97;5082840;28;20594;-69
2021/03/01 06:42:27;;;;;;;11.17;8.27;;;;;;;1.84;75.62;98100.28;5078636;28;20223;-68
2021/03/01 06:44:58;;;;;;;13.43;9.37;;;;;;;2.24;74.27;98100.81;5080554;28;20184;-69
2021/03/01 06:47:50;;;;;;;11.90;8.63;;;;;;;2.41;73.60;98109.59;5084328;28;20849;-69
2021/03/01 06:50:31;;;;;;;14.63;10.33;;;;;;;2.68;72.76;98108.78;5079513;28;20205;-69
2021/03/01 06:52:58;;;;;;;12.40;8.77;;;;;;;2.44;73.18;98112.72;5081614;28;20196;-68
2021/03/01 06:55:24;;;;;;;12.10;8.70;;;;;;;2.61;72.93;98113.75;5078337;28;20247;-68
2021/03/01 06:57:49;;;;;;;11.57;8.30;;;;;;;2.79;72.28;98116.34;5084946;28;20661;-68
2021/03/01 07:00:23;;;;;;;13.17;8.70;;;;;;;2.75;71.39;98123.59;5079341;28;20224;-67
2021/03/01 07:02:48;;;;;;;13.17;8.67;;;;;;;2.75;71.68;98115.84;5086166;28;20265;-69
2021/03/01 07:05:13;;;;;;;13.40;9.20;;;;;;;2.90;71.10;98108.38;5076765;28;20693;-68
2021/03/01 07:07:39;;;;;;;13.87;8.97;;;;;;;3.06;71.03;98118.94;5082261;28;20181;-68
2021/03/01 07:10:10;;;;;;;11.10;9.00;;;;;;;3.06;71.35;98120.72;5084150;28;20342;-68
2021/03/01 07:12:49;;;;;;;13.90;9.40;;;;;;;3.00;71.40;98129.06;5075686;28;20184;-67
2021/03/01 07:15:15;;;;;;;14.17;9.13;;;;;;;3.13;71.17;98126.91;5091358;28;20255;-69
2021/03/01 07:17:43;;;;;;;14.70;10.03;;;;;;;3.14;72.07;98123.38;5088633;28;20189;-69
2021/03/01 07:20:12;;;;;;;14.87;9.70;;;;;;;3.40;72.38;98126.06;5082132;28;20192;-70
2021/03/01 07:22:40;;;;;;;12.83;9.30;;;;;;;3.59;69.72;98126.72;5073566;28;20197;-70
2021/03/01 07:25:07;;;;;;;12.30;9.17;;;;;;;3.63;70.17;98130.63;5073471;28;20243;-70
2021/03/01 07:27:43;;;;;;;13.70;10.00;;;;;;;3.50;70.12;98125.03;5074234;28;20181;-70
2021/03/01 07:30:11;;;;;;;13.90;9.33;;;;;;;3.64;69.95;98128.84;5077384;28;20571;-70
2021/03/01 07:32:38;;;;;;;11.10;9.07;;;;;;;3.70;69.14;98136.84;5079409;28;20305;-70
2021/03/01 07:35:07;;;;;;;15.13;10.13;;;;;;;3.89;69.58;98132.47;5085255;28;20184;-69
2021/03/01 07:37:36;;;;;;;12.80;9.73;;;;;;;3.75;69.95;98134.63;5078605;28;20230;-70
2021/03/01 07:40:05;;;;;;;16.17;10.53;;;;;;;3.94;68.98;98125.03;5074133;28;20200;-70
2021/03/01 07:42:33;;;;;;;12.57;9.23;;;;;;;3.84;68.31;98126.91;5072424;28;20542;-72
2021/03/01 07:44:59;;;;;;;13.83;9.10;;;;;;;3.84;69.55;98135.50;5070760;28;20223;-70
2021/03/01 07:47:29;;;;;;;11.57;9.00;;;;;;;3.89;68.34;98133.28;5080185;28;20243;-69
2021/03/01 07:49:55;;;;;;;12.63;8.70;;;;;;;4.02;68.19;98120.69;5079255;28;20732;-71
2021/03/01 07:52:20;;;;;;;11.77;8.27;;;;;;;4.13;67.28;98123.03;5084150;28;20366;-70
2021/03/01 07:54:56;;;;;;;25.30;9.07;;;;;;;4.38;67.30;98124.00;5082406;28;20181;-69
2021/03/01 07:57:24;;;;;;;10.20;7.87;;;;;;;4.49;66.55;98123.75;5088333;28;20710;-70
2021/03/01 07:59:49;;;;;;;10.17;7.53;;;;;;;4.58;66.44;98125.38;5076603;28;20279;-68
2021/03/01 08:02:19;;;;;;;9.47;7.40;;;;;;;4.60;66.33;98126.06;5073403;28;20607;-68
2021/03/01 08:04:45;;;;;;;11.17;7.50;;;;;;;4.83;65.09;98135.88;5081221;28;20196;-68
2021/03/01 08:07:10;;;;;;;9.37;7.37;;;;;;;4.73;64.38;98130.81;5084005;28;20638;-69
2021/03/01 08:09:41;;;;;;;13.87;7.97;;;;;;;4.98;64.23;98129.94;5080495;28;20212;-70
2021/03/01 08:12:06;;;;;;;8.43;7.20;;;;;;;4.71;64.16;98131.94;5081753;28;20642;-68
2021/03/01 08:14:50;;;;;;;8.37;6.97;;;;;;;4.77;63.76;98131.31;5079153;28;20177;-68
2021/03/01 08:17:28;;;;;;;10.77;7.33;;;;;;;4.78;63.89;98135.53;5077625;28;20176;-69
2021/03/01 08:20:00;;;;;;;9.53;7.80;;;;;;;4.93;63.59;98131.38;5079282;28;20246;-69
2021/03/01 08:22:26;;;;;;;10.00;7.17;;;;;;;4.94;63.89;98130.41;5086169;28;20215;-69
2021/03/01 08:24:57;;;;;;;8.37;7.20;;;;;;;4.95;63.76;98137.22;5085669;28;20204;-69
2021/03/01 08:27:25;;;;;;;8.80;6.97;;;;;;;4.99;63.68;98122.94;5080407;28;20168;-69
2021/03/01 08:30:32;;;;;;;9.67;7.53;;;;;;;5.13;63.21;98127.50;5078002;28;20221;-69
2021/03/01 08:33:09;;;;;;;9.17;7.33;;;;;;;5.15;63.10;98122.16;5084486;28;20189;-69
2021/03/01 08:35:46;;;;;;;8.63;7.03;;;;;;;5.12;63.66;98125.09;5086466;28;20181;-68
2021/03/01 08:38:15;;;;;;;9.43;7.40;;;;;;;5.15;62.51;98129.97;5072415;28;20181;-70
2021/03/01 08:40:56;;;;;;;11.03;7.80;;;;;;;5.09;62.73;98134.00;5083924;28;20662;-69
2021/03/01 08:43:35;;;;;;;10.73;7.47;;;;;;;5.07;62.15;98133.34;5088646;28;20281;-69
2021/03/01 08:46:01;;;;;;;13.33;8.73;;;;;;;5.03;62.67;98137.25;5090808;28;20176;-68
2021/03/01 08:48:27;;;;;;;14.10;9.33;;;;;;;4.82;62.55;98135.06;5087866;28;20196;-69
2021/03/01 08:50:54;;;;;;;12.60;9.43;;;;;;;4.77;63.12;98132.13;5074801;28;20201;-69
2021/03/01 08:53:24;;;;;;;14.47;9.70;;;;;;;5.00;63.38;98132.38;5082048;28;20181;-69
2021/03/01 08:55:50;;;;;;;13.07;9.43;;;;;;;5.24;62.54;98126.44;5082392;28;20231;-69
2021/03/01 08:58:16;;;;;;;11.53;8.80;;;;;;;5.33;62.22;98126.28;5071846;28;20658;-70
2021/03/01 09:00:52;;;;;;;29.13;10.03;;;;;;;5.30;63.05;98131.78;5086697;28;20196;-70
2021/03/01 09:03:42;;;;;;;10.87;8.07;;;;;;;5.38;62.41;98120.59;5080354;28;20172;-69
2021/03/01 09:06:14;;;;;;;11.27;8.17;;;;;;;5.33;62.34;98122.84;5092507;28;20641;-69
2021/03/01 09:08:47;;;;;;;11.57;8.07;;;;;;;5.36;62.10;98117.31;5081208;28;20259;-70
2021/03/01 09:11:13;;;;;;;9.37;7.53;;;;;;;5.32;60.94;98123.81;5083567;28;20182;-69
2021/03/01 09:13:40;;;;;;;10.90;7.30;;;;;;;5.39;61.74;98123.03;5085473;28;20176;-70
2021/03/01 09:16:10;;;;;;;9.60;7.50;;;;;;;5.54;61.00;98119.78;5085913;28;20242;-69
2021/03/01 09:18:36;;;;;;;10.87;6.97;;;;;;;5.74;60.80;98119.28;5087303;28;20633;-69
2021/03/01 09:21:03;;;;;;;8.63;7.17;;;;;;;5.81;60.62;98115.06;5077093;28;20185;-68
2021/03/01 09:23:37;;;;;;;10.87;7.47;;;;;;;5.82;60.51;98113.28;5090301;28;20178;-73
2021/03/01 09:26:07;;;;;;;11.87;7.67;;;;;;;5.91;59.40;98109.72;5074816;28;20173;-71
2021/03/01 09:28:35;;;;;;;10.70;7.77;;;;;;;5.98;58.53;98115.91;5080159;28;20551;-70
2021/03/01 09:31:09;;;;;;;8.93;6.93;;;;;;;6.06;58.92;98112.47;5084924;28;20688;-69
2021/03/01 09:33:36;;;;;;;8.67;7.03;;;;;;;6.06;58.53;98109.88;5083064;28;20223;-70
2021/03/01 09:36:03;;;;;;;10.40;6.80;;;;;;;6.11;58.42;98105.81;5074500;28;20647;-69
2021/03/01 09:38:29;;;;;;;8.10;6.83;;;;;;;6.25;58.34;98105.09;5083721;28;20250;-73
2021/03/01 09:41:02;;;;;;;9.33;7.27;;;;;;;6.39;57.18;98110.63;5088372;28;20639;-72
2021/03/01 09:43:28;;;;;;;13.57;7.97;;;;;;;6.41;57.50;98117.25;5082313;28;20192;-68
2021/03/01 09:45:55;;;;;;;8.63;6.93;;;;;;;6.47;56.72;98115.78;5080079;28;20211;-74
2021/03/01 09:48:21;;;;;;;9.03;7.83;;;;;;;6.51;56.15;98117.09;5075585;28;20345;-72
2021/03/01 09:50:47;;;;;;;10.47;7.70;;;;;;;6.50;56.89;98107.66;5090937;28;20724;-72
2021/03/01 09:53:15;;;;;;;8.53;7.53;;;;;;;6.53;56.65;98110.72;5084771;28;20560;-70
2021/03/01 09:55:42;;;;;;;10.13;7.57;;;;;;;6.76;56.76;98109.97;5073115;28;20185;-68
2021/03/01 09:58:41;;;;;;;16.70;8.87;;;;;;;6.60;56.02;98109.06;5082434;28;20200;-68
2021/03/01 10:01:09;;;;;;;11.10;8.43;;;;;;;6.71;55.82;98097.47;5044037;28;20249;-72
2021/03/01 10:03:39;;;;;;;11.57;7.93;;;;;;;6.90;55.04;98099.69;5082419;28;20645;-69
2021/03/01 10:06:05;;;;;;;12.63;7.67;;;;;;;7.08;55.16;98104.59;5086251;28;20187;-72
2021/03/01 10:08:31;;;;;;;10.87;8.33;;;;;;;7.16;55.15;98107.19;5080836;28;20181;-70
2021/03/01 10:10:57;;;;;;;12.30;8.23;;;;;;;7.23;54.55;98099.47;5085107;28;20209;-72
2021/03/01 10:13:25;;;;;;;8.33;6.30;;;;;;;7.37;52.79;98103.94;5086501;28;20225;-66
2021/03/01 10:15:51;;;;;;;10.17;7.17;;;;;;;7.43;51.89;98104.06;5086461;28;20185;-64
2021/03/01 10:18:20;;;;;;;12.30;8.17;;;;;;;7.47;51.62;98081.84;5083036;28;20225;-65
2021/03/01 10:20:53;;;;;;;10.33;6.63;;;;;;;7.59;51.39;98092.69;5081240;28;20192;-63
2021/03/01 10:23:30;;;;;;;11.97;6.87;;;;;;;7.57;50.85;98097.28;5076614;28;20179;-65
2021/03/01 10:26:06;;;;;;;10.37;6.90;;;;;;;7.60;49.90;98093.50;5081290;28;20180;-63
2021/03/01 10:28:36;;;;;;;11.27;7.77;;;;;;;7.73;51.86;98094.53;5089060;28;20188;-65
2021/03/01 10:31:07;;;;;;;8.77;6.83;;;;;;;7.89;49.78;98090.97;5051718;28;628423;-64
2021/03/01 10:33:51;;;;;;;9.30;6.40;;;;;;;7.87;48.62;98088.53;5091227;28;20217;-68
2021/03/01 10:36:16;;;;;;;9.53;6.87;;;;;;;7.98;49.36;98092.50;5083438;28;20204;-68
2021/03/01 10:39:07;;;;;;;10.90;7.60;;;;;;;7.94;51.36;98092.06;5085534;28;20649;-70
2021/03/01 10:41:41;;;;;;;13.07;7.97;;;;;;;7.78;49.38;98089.59;5071083;28;20245;-63
2021/03/01 10:44:07;;;;;;;12.30;7.67;;;;;;;7.97;49.62;98087.50;5080310;28;20650;-63
2021/03/01 10:46:42;;;;;;;11.13;7.13;;;;;;;8.08;47.91;98087.06;5078983;28;20184;-68
2021/03/01 10:49:28;;;;;;;11.50;7.27;;;;;;;8.18;48.13;98085.81;5076251;28;20289;-65
2021/03/01 10:51:58;;;;;;;10.80;6.93;;;;;;;8.26;47.38;98085.69;5083268;28;20217;-66
2021/03/01 10:54:26;;;;;;;11.50;6.70;;;;;;;8.43;45.40;98077.72;5079386;28;20197;-64
2021/03/01 10:56:52;;;;;;;9.13;6.67;;;;;;;8.50;45.63;98076.81;5088649;28;20192;-64
2021/03/01 10:59:17;;;;;;;5.87;4.67;;;;;;;8.67;41.22;98070.41;5082989;28;20192;-64
2021/03/01 11:01:45;;;;;;;11.03;4.93;;;;;;;8.95;43.04;98065.28;5090389;28;20558;-65
2021/03/01 11:04:12;;;;;;;8.33;5.50;;;;;;;9.08;43.07;98067.25;5083716;28;20173;-65
2021/03/01 11:06:38;;;;;;;5.90;5.30;;;;;;;9.13;43.88;98072.72;5082477;28;20581;-64
2021/03/01 11:09:06;;;;;;;4.77;4.20;;;;;;;9.21;40.71;98069.16;5080029;28;20533;-67
2021/03/01 11:11:36;;;;;;;4.20;3.90;;;;;;;9.32;38.10;98071.28;5088870;28;20189;-63
2021/03/01 11:14:03;;;;;;;5.47;3.77;;;;;;;9.51;37.92;98065.44;5080131;28;20268;-63
2021/03/01 11:16:28;;;;;;;5.60;3.80;;;;;;;9.62;37.38;98061.50;5080728;28;20267;-63
2021/03/01 11:18:53;;;;;;;4.67;3.47;;;;;;;9.67;35.70;98062.56;5080731;28;20173;-65
2021/03/01 11:21:19;;;;;;;6.10;4.50;;;;;;;9.87;36.82;98055.66;5072075;28;20260;-65
2021/03/01 11:23:45;;;;;;;7.20;4.17;;;;;;;9.89;35.59;98056.28;5082331;28;20182;-65
2021/03/01 11:26:14;;;;;;;4.50;3.67;;;;;;;10.01;35.98;98065.25;5084748;28;20177;-65
2021/03/01 11:28:39;;;;;;;4.07;3.67;;;;;;;9.91;34.86;98051.69;5081239;28;20173;-65
2021/03/01 11:31:05;;;;;;;4.80;3.60;;;;;;;10.16;36.05;98052.06;5089609;28;20227;-65
2021/03/01 11:33:30;;;;;;;3.73;3.43;;;;;;;10.53;36.33;98052.66;5090379;28;20173;-65
2021/03/01 11:35:56;;;;;;;3.80;3.43;;;;;;;10.52;33.81;98044.00;5086069;28;20188;-70
2021/03/01 11:38:22;;;;;;;5.07;3.40;;;;;;;10.33;33.77;98045.50;5074827;28;20180;-66
2021/03/01 11:40:49;;;;;;;8.50;3.67;;;;;;;10.35;34.76;98038.28;5076500;28;20247;-66